createdAt,value
2022-09-11T00:02:07.046Z,17.60
2022-09-11T00:04:37.893Z,17.60
2022-09-11T00:07:08.963Z,17.60
2022-09-11T00:09:39.769Z,17.60
2022-09-11T00:12:13.403Z,17.60
2022-09-11T00:14:44.292Z,17.60
2022-09-11T00:17:17.462Z,17.60
2022-09-11T00:19:48.242Z,17.60
2022-09-11T00:22:19.226Z,17.60
2022-09-11T00:24:50.326Z,17.50
2022-09-11T00:27:25.004Z,17.50
2022-09-11T00:29:55.755Z,17.50
2022-09-11T00:32:26.985Z,17.50
2022-09-11T00:34:57.956Z,17.50
2022-09-11T00:37:29.153Z,17.40
2022-09-11T00:39:59.991Z,17.50
2022-09-11T00:42:33.666Z,17.50
2022-09-11T00:45:06.658Z,17.50
2022-09-11T00:47:38.739Z,17.40
2022-09-11T00:50:15.474Z,17.50
2022-09-11T00:52:53.269Z,17.40
2022-09-11T00:55:26.952Z,17.50
2022-09-11T00:58:02.136Z,17.50
2022-09-11T01:00:32.928Z,17.50
2022-09-11T01:03:04.221Z,17.50
2022-09-11T01:05:36.485Z,17.40
2022-09-11T01:08:08.341Z,17.40
2022-09-11T01:10:42.952Z,17.40
2022-09-11T01:13:22.214Z,17.40
2022-09-11T01:15:57.450Z,17.40
2022-09-11T01:18:31.578Z,17.40
2022-09-11T01:21:08.663Z,17.50
2022-09-11T01:23:51.200Z,17.40
2022-09-11T01:26:40.355Z,17.50
2022-09-11T01:29:19.230Z,17.50
2022-09-11T01:31:56.064Z,17.50
2022-09-11T01:34:30.223Z,17.50
2022-09-11T01:37:04.105Z,17.50
2022-09-11T01:39:38.079Z,17.40
2022-09-11T01:42:14.882Z,17.30
2022-09-11T01:44:51.967Z,17.30
2022-09-11T01:47:23.380Z,17.40
2022-09-11T01:49:59.339Z,17.40
2022-09-11T01:52:34.087Z,17.40
2022-09-11T01:55:08.109Z,17.50
2022-09-11T01:57:42.941Z,17.40
2022-09-11T02:00:18.388Z,17.40
2022-09-11T02:03:00.291Z,17.40
2022-09-11T02:05:33.808Z,17.40
2022-09-11T02:08:07.283Z,17.40
2022-09-11T02:10:42.660Z,17.50
2022-09-11T02:13:15.506Z,17.50
2022-09-11T02:15:52.409Z,17.50
2022-09-11T02:18:27.621Z,17.40
2022-09-11T02:20:58.646Z,17.50
2022-09-11T02:23:29.486Z,17.40
2022-09-11T02:26:00.599Z,17.40
2022-09-11T02:28:31.602Z,17.40
2022-09-11T02:31:05.617Z,17.40
2022-09-11T02:33:37.768Z,17.30
2022-09-11T02:36:22.440Z,17.40
2022-09-11T02:39:00.264Z,17.40
2022-09-11T02:41:35.868Z,17.40
2022-09-11T02:44:10.275Z,17.40
2022-09-11T02:46:57.554Z,17.30
2022-09-11T02:49:32.391Z,17.30
2022-09-11T02:52:07.938Z,17.30
2022-09-11T02:54:44.722Z,17.40
2022-09-11T02:57:20.209Z,17.40
2022-09-11T02:59:54.931Z,17.30
2022-09-11T03:02:29.050Z,17.30
2022-09-11T03:04:59.969Z,17.30
2022-09-11T03:07:31.308Z,17.30
2022-09-11T03:10:01.983Z,17.30
2022-09-11T03:12:34.503Z,17.30
2022-09-11T03:15:06.251Z,17.30
2022-09-11T03:17:40.118Z,17.30
2022-09-11T03:20:11.557Z,17.20
2022-09-11T03:22:43.040Z,17.20
2022-09-11T03:25:15.240Z,17.30
2022-09-11T03:27:47.453Z,17.20
2022-09-11T03:30:18.456Z,17.20
2022-09-11T03:32:55.575Z,17.20
2022-09-11T03:35:27.285Z,17.20
2022-09-11T03:37:58.482Z,17.20
2022-09-11T03:40:29.494Z,17.20
2022-09-11T03:43:03.107Z,17.20
2022-09-11T03:45:34.657Z,17.20
2022-09-11T03:48:09.029Z,17.20
2022-09-11T03:50:39.826Z,17.20
2022-09-11T03:53:11.817Z,17.20
2022-09-11T03:55:43.080Z,17.10
2022-09-11T03:58:14.413Z,17.20
2022-09-11T04:00:47.723Z,17.10
2022-09-11T04:03:22.343Z,17.10
2022-09-11T04:06:00.210Z,17.10
2022-09-11T04:08:33.813Z,17.10
2022-09-11T04:11:07.722Z,17.10
2022-09-11T04:13:42.350Z,17.20
2022-09-11T04:16:17.665Z,17.10
2022-09-11T04:18:54.444Z,17.10
2022-09-11T04:21:27.854Z,17.10
2022-09-11T04:24:00.549Z,17.10
2022-09-11T04:26:34.052Z,17.00
2022-09-11T04:29:12.549Z,17.10
2022-09-11T04:31:43.645Z,17.10
2022-09-11T04:34:19.382Z,17.10
2022-09-11T04:36:50.184Z,17.10
2022-09-11T04:39:25.118Z,17.10
2022-09-11T04:41:56.087Z,17.10
2022-09-11T04:44:27.662Z,17.10
2022-09-11T04:46:59.355Z,17.10
2022-09-11T04:49:33.276Z,17.20
2022-09-11T04:52:07.366Z,17.10
2022-09-11T04:54:38.856Z,17.10
2022-09-11T04:57:14.530Z,17.00
2022-09-11T04:59:45.633Z,17.00
2022-09-11T05:02:17.586Z,17.00
2022-09-11T05:04:54.795Z,17.10
2022-09-11T05:07:25.404Z,17.00
2022-09-11T05:09:58.691Z,17.00
2022-09-11T05:12:29.568Z,17.00
2022-09-11T05:15:00.872Z,17.00
2022-09-11T05:17:34.355Z,17.00
2022-09-11T05:20:11.892Z,17.10
2022-09-11T05:22:43.191Z,17.10
2022-09-11T05:25:16.331Z,17.10
2022-09-11T05:27:48.164Z,17.10
2022-09-11T05:30:19.334Z,17.10
2022-09-11T05:32:50.215Z,17.00
2022-09-11T05:35:24.245Z,17.10
2022-09-11T05:37:55.042Z,17.10
2022-09-11T05:40:26.493Z,17.10
2022-09-11T05:42:57.588Z,17.10
2022-09-11T05:45:29.069Z,17.10
2022-09-11T05:47:59.914Z,17.10
2022-09-11T05:50:34.566Z,17.10
2022-09-11T05:53:06.295Z,17.10
2022-09-11T05:55:37.883Z,17.10
2022-09-11T05:58:09.346Z,17.10
2022-09-11T06:00:40.976Z,17.10
2022-09-11T06:03:15.384Z,17.10
2022-09-11T06:05:50.071Z,17.10
2022-09-11T06:08:22.244Z,17.00
2022-09-11T06:10:53.619Z,17.00
2022-09-11T06:13:24.497Z,17.00
2022-09-11T06:15:56.191Z,17.10
2022-09-11T06:18:26.965Z,17.10
2022-09-11T06:21:01.979Z,17.20
2022-09-11T06:23:40.175Z,17.10
2022-09-11T06:26:14.413Z,17.20
2022-09-11T06:28:47.358Z,17.20
2022-09-11T06:31:19.975Z,17.20
2022-09-11T06:33:51.473Z,17.20
2022-09-11T06:36:26.790Z,17.20
2022-09-11T06:39:00.385Z,17.20
2022-09-11T06:41:33.356Z,17.30
2022-09-11T06:44:12.919Z,17.20
2022-09-11T06:46:44.660Z,17.20
2022-09-11T06:49:17.408Z,17.20
2022-09-11T06:52:09.945Z,17.20
2022-09-11T06:54:41.535Z,17.30
2022-09-11T06:57:17.827Z,17.20
2022-09-11T06:59:48.567Z,17.20
2022-09-11T07:02:21.012Z,17.20
2022-09-11T07:04:52.792Z,17.20
2022-09-11T07:07:29.116Z,17.20
2022-09-11T07:10:00.134Z,17.30
2022-09-11T07:12:32.227Z,17.20
2022-09-11T07:15:03.112Z,17.20
2022-09-11T07:17:34.808Z,17.20
2022-09-11T07:20:06.023Z,17.30
2022-09-11T07:22:40.683Z,17.30
2022-09-11T07:25:20.514Z,17.30
2022-09-11T07:27:55.187Z,17.30
2022-09-11T07:30:27.330Z,17.20
2022-09-11T07:33:00.084Z,17.30
2022-09-11T07:35:31.256Z,17.30
2022-09-11T07:38:04.925Z,17.30
2022-09-11T07:40:38.681Z,17.30
2022-09-11T07:43:10.437Z,17.30
2022-09-11T07:45:41.346Z,17.30
2022-09-11T07:48:13.447Z,17.20
2022-09-11T07:50:44.095Z,17.20
2022-09-11T07:53:18.502Z,17.30
2022-09-11T07:55:49.600Z,17.20
2022-09-11T07:58:20.888Z,17.10
2022-09-11T08:00:52.036Z,17.20
2022-09-11T08:03:24.008Z,17.20
2022-09-11T08:05:59.920Z,17.20
2022-09-11T08:08:33.813Z,17.30
2022-09-11T08:11:06.693Z,17.30
2022-09-11T08:13:40.210Z,17.30
2022-09-11T08:16:12.692Z,17.30
2022-09-11T08:18:45.304Z,17.30
2022-09-11T08:21:18.355Z,17.30
2022-09-11T08:23:52.295Z,17.30
2022-09-11T08:26:24.251Z,17.30
2022-09-11T08:29:00.136Z,17.30
2022-09-11T08:31:35.406Z,17.30
2022-09-11T08:34:07.523Z,17.40
2022-09-11T08:36:38.296Z,17.40
2022-09-11T08:39:13.429Z,17.40
2022-09-11T08:41:52.303Z,17.40
2022-09-11T08:44:26.127Z,17.40
2022-09-11T08:47:06.752Z,17.40
2022-09-11T08:49:42.131Z,17.40
2022-09-11T08:52:15.164Z,17.40
2022-09-11T08:54:50.810Z,17.50
2022-09-11T08:57:27.729Z,17.50
2022-09-11T09:00:07.710Z,17.50
2022-09-11T09:03:04.037Z,17.50
2022-09-11T09:05:40.803Z,17.50
2022-09-11T09:08:19.574Z,17.50
2022-09-11T09:10:56.693Z,17.60
2022-09-11T09:13:39.667Z,17.60
2022-09-11T09:16:20.085Z,17.60
2022-09-11T09:18:55.303Z,17.60
2022-09-11T09:21:31.552Z,17.60
2022-09-11T09:24:05.497Z,17.60
2022-09-11T09:26:42.815Z,17.60
2022-09-11T09:29:18.019Z,17.70
2022-09-11T09:31:51.128Z,17.70
2022-09-11T09:34:22.964Z,17.60
2022-09-11T09:36:59.227Z,17.60
2022-09-11T09:39:30.173Z,17.60
2022-09-11T09:42:18.271Z,17.60
2022-09-11T09:45:01.242Z,17.60
2022-09-11T09:47:32.668Z,17.70
2022-09-11T09:50:03.517Z,17.70
2022-09-11T09:52:36.677Z,17.70
2022-09-11T09:55:08.898Z,17.70
2022-09-11T09:57:43.590Z,17.70
2022-09-11T10:00:20.231Z,17.80
2022-09-11T10:02:54.172Z,17.70
2022-09-11T10:05:28.225Z,17.80
2022-09-11T10:08:03.330Z,17.80
2022-09-11T10:10:36.491Z,17.80
2022-09-11T10:13:21.524Z,17.80
2022-09-11T10:15:52.884Z,17.80
2022-09-11T10:18:25.146Z,17.90
2022-09-11T10:20:55.884Z,17.90
2022-09-11T10:23:29.498Z,17.90
2022-09-11T10:26:00.345Z,17.90
2022-09-11T10:28:35.308Z,17.90
2022-09-11T10:31:06.978Z,17.90
2022-09-11T10:33:40.823Z,17.90
2022-09-11T10:36:12.883Z,17.90
2022-09-11T10:38:49.173Z,17.90
2022-09-11T10:41:21.878Z,17.90
2022-09-11T10:44:00.405Z,18.00
2022-09-11T10:46:39.629Z,18.00
2022-09-11T10:49:12.393Z,18.10
2022-09-11T10:51:47.389Z,18.10
2022-09-11T10:54:25.339Z,18.10
2022-09-11T10:57:04.898Z,18.10
2022-09-11T10:59:46.220Z,18.20
2022-09-11T11:02:20.875Z,18.20
2022-09-11T11:04:52.399Z,18.20
2022-09-11T11:07:30.253Z,18.20
2022-09-11T11:10:05.895Z,18.30
2022-09-11T11:12:43.285Z,18.20
2022-09-11T11:15:32.337Z,18.30
2022-09-11T11:18:16.210Z,18.30
2022-09-11T11:20:51.518Z,18.30
2022-09-11T11:23:28.053Z,18.40
2022-09-11T11:26:06.332Z,18.40
2022-09-11T11:28:44.424Z,18.50
2022-09-11T11:31:25.822Z,18.50
2022-09-11T11:34:04.437Z,18.50
2022-09-11T11:36:38.119Z,18.60
2022-09-11T11:39:11.628Z,18.60
2022-09-11T11:41:45.434Z,18.60
2022-09-11T11:44:19.432Z,18.60
2022-09-11T11:46:55.879Z,18.60
2022-09-11T11:49:31.618Z,18.60
2022-09-11T11:52:07.259Z,18.70
2022-09-11T11:54:41.329Z,18.70
2022-09-11T11:57:14.557Z,18.80
2022-09-11T11:59:50.287Z,18.70
2022-09-11T12:02:25.567Z,18.80
2022-09-11T12:04:59.604Z,18.80
2022-09-11T12:07:32.778Z,18.80
2022-09-11T12:10:04.414Z,18.90
2022-09-11T12:12:36.836Z,18.90
2022-09-11T12:15:08.898Z,18.90
2022-09-11T12:17:44.113Z,19.00
2022-09-11T12:20:31.690Z,19.00
2022-09-11T12:23:03.642Z,19.00
2022-09-11T12:25:49.654Z,19.10
2022-09-11T12:28:24.796Z,19.10
2022-09-11T12:31:03.454Z,19.10
2022-09-11T12:33:49.596Z,19.20
2022-09-11T12:36:25.350Z,19.20
2022-09-11T12:38:58.155Z,19.20
2022-09-11T12:41:30.688Z,19.20
2022-09-11T12:44:04.195Z,19.20
2022-09-11T12:46:49.998Z,19.30
2022-09-11T12:49:23.271Z,19.30
2022-09-11T12:51:58.233Z,19.30
2022-09-11T12:54:31.689Z,19.40
2022-09-11T12:57:04.027Z,19.40
2022-09-11T12:59:38.298Z,19.40
2022-09-11T13:02:22.575Z,19.40
2022-09-11T13:04:54.142Z,19.40
2022-09-11T13:07:31.041Z,19.40
2022-09-11T13:10:08.215Z,19.40
2022-09-11T13:12:53.370Z,19.40
2022-09-11T13:15:39.329Z,19.50
2022-09-11T13:18:25.200Z,19.40
2022-09-11T13:21:00.913Z,19.40
2022-09-11T13:23:34.729Z,19.40
2022-09-11T13:26:06.547Z,19.50
2022-09-11T13:28:44.305Z,19.40
2022-09-11T13:31:19.630Z,19.40
2022-09-11T13:33:52.216Z,19.50
2022-09-11T13:36:26.096Z,19.40
2022-09-11T13:39:01.293Z,19.50
2022-09-11T13:41:34.359Z,19.40
2022-09-11T13:44:07.443Z,19.40
2022-09-11T13:46:58.848Z,19.40
2022-09-11T13:49:36.392Z,19.40
2022-09-11T13:52:09.397Z,19.40
2022-09-11T13:54:44.413Z,19.40
2022-09-11T13:57:17.714Z,19.40
2022-09-11T13:59:49.976Z,19.40
2022-09-11T14:02:28.643Z,19.40
2022-09-11T14:05:05.294Z,19.40
2022-09-11T14:07:46.541Z,19.40
2022-09-11T14:10:22.750Z,19.40
2022-09-11T14:12:56.300Z,19.40
2022-09-11T14:15:32.409Z,19.30
2022-09-11T14:18:04.759Z,19.30
2022-09-11T14:20:36.178Z,19.30
2022-09-11T14:23:09.297Z,19.30
2022-09-11T14:26:03.117Z,19.30
2022-09-11T14:28:38.789Z,19.20
2022-09-11T14:31:12.659Z,19.20
2022-09-11T14:33:44.614Z,19.10
2022-09-11T14:36:20.573Z,19.10
2022-09-11T14:38:53.649Z,19.10
2022-09-11T14:41:27.132Z,19.10
2022-09-11T14:43:59.152Z,19.00
2022-09-11T14:46:30.123Z,18.90
2022-09-11T14:49:02.880Z,18.90
2022-09-11T14:51:33.777Z,18.90
2022-09-11T14:54:05.235Z,18.80
2022-09-11T14:56:40.829Z,18.80
2022-09-11T14:59:12.683Z,18.90
2022-09-11T15:01:44.107Z,18.90
2022-09-11T15:04:20.561Z,18.80
2022-09-11T15:06:53.327Z,18.80
2022-09-11T15:09:25.139Z,18.70
2022-09-11T15:11:59.023Z,18.60
2022-09-11T15:14:52.263Z,18.60
2022-09-11T15:17:21.787Z,18.60
2022-09-11T15:19:53.627Z,18.50
2022-09-11T15:22:24.659Z,18.50
2022-09-11T15:24:56.363Z,18.50
2022-09-11T15:27:30.281Z,18.50
2022-09-11T15:30:01.653Z,18.40
2022-09-11T15:32:32.957Z,18.40
2022-09-11T15:35:05.224Z,18.30
2022-09-11T15:37:38.329Z,18.40
2022-09-11T15:40:10.368Z,18.40
2022-09-11T15:42:44.182Z,18.40
2022-09-11T15:45:15.906Z,18.40
2022-09-11T15:47:48.149Z,18.30
2022-09-11T15:50:24.898Z,18.30
2022-09-11T15:52:55.768Z,18.30
2022-09-11T15:55:30.369Z,18.30
2022-09-11T15:58:05.513Z,18.30
2022-09-11T16:00:37.808Z,18.30
2022-09-11T16:03:09.186Z,18.30
2022-09-11T16:05:43.386Z,18.30
2022-09-11T16:08:15.621Z,18.30
2022-09-11T16:10:46.954Z,18.10
2022-09-11T16:13:21.376Z,18.20
2022-09-11T16:15:52.895Z,18.20
2022-09-11T16:18:24.010Z,18.20
2022-09-11T16:20:59.122Z,18.10
2022-09-11T16:23:31.112Z,18.10
2022-09-11T16:26:07.784Z,18.10
2022-09-11T16:28:47.275Z,18.10
2022-09-11T16:31:19.333Z,18.10
2022-09-11T16:33:50.638Z,18.10
2022-09-11T16:36:23.405Z,18.00
2022-09-11T16:38:55.194Z,18.00
2022-09-11T16:41:26.817Z,18.00
2022-09-11T16:44:00.662Z,18.00
2022-09-11T16:46:32.710Z,18.00
2022-09-11T16:49:04.956Z,17.90
2022-09-11T16:51:38.879Z,18.00
2022-09-11T16:54:12.575Z,17.90
2022-09-11T16:56:46.225Z,17.90
2022-09-11T16:59:20.159Z,17.90
2022-09-11T17:01:52.706Z,17.80
2022-09-11T17:04:23.984Z,17.80
2022-09-11T17:06:56.233Z,17.80
2022-09-11T17:09:27.682Z,17.90
2022-09-11T17:11:59.752Z,17.90
2022-09-11T17:14:35.028Z,17.80
2022-09-11T17:17:07.399Z,17.80
2022-09-11T17:19:39.247Z,17.80
2022-09-11T17:22:11.818Z,17.80
2022-09-11T17:24:43.273Z,17.80
2022-09-11T17:27:15.256Z,17.80
2022-09-11T17:29:49.841Z,17.80
2022-09-11T17:32:28.357Z,17.80
2022-09-11T17:35:01.553Z,17.80
2022-09-11T17:37:35.890Z,17.80
2022-09-11T17:40:27.347Z,17.80
2022-09-11T17:43:02.948Z,17.80
2022-09-11T17:45:36.792Z,17.80
2022-09-11T17:48:09.071Z,17.80
2022-09-11T17:50:40.568Z,17.80
2022-09-11T17:53:12.456Z,17.80
2022-09-11T17:55:43.580Z,17.70
2022-09-11T17:58:15.666Z,17.70
2022-09-11T18:00:50.045Z,17.60
2022-09-11T18:03:23.092Z,17.60
2022-09-11T18:05:55.158Z,17.60
2022-09-11T18:08:27.650Z,17.60
2022-09-11T18:11:02.203Z,17.60
2022-09-11T18:13:35.110Z,17.60
2022-09-11T18:16:11.497Z,17.60
2022-09-11T18:18:44.225Z,17.60
2022-09-11T18:21:17.603Z,17.60
2022-09-11T18:23:50.096Z,17.60
2022-09-11T18:26:22.273Z,17.60
2022-09-11T18:28:53.882Z,17.60
2022-09-11T18:31:30.076Z,17.60
2022-09-11T18:34:04.593Z,17.60
2022-09-11T18:36:36.389Z,17.60
2022-09-11T18:39:08.947Z,17.50
2022-09-11T18:41:40.348Z,17.50
2022-09-11T18:44:19.281Z,17.50
2022-09-11T18:46:51.394Z,17.50
2022-09-11T18:49:25.783Z,17.40
2022-09-11T18:51:57.096Z,17.30
2022-09-11T18:54:32.545Z,17.40
2022-09-11T18:57:04.194Z,17.40
2022-09-11T18:59:35.596Z,17.40
2022-09-11T19:02:06.979Z,17.40
2022-09-11T19:04:40.971Z,17.40
2022-09-11T19:07:14.358Z,17.40
2022-09-11T19:09:47.118Z,17.40
2022-09-11T19:12:19.337Z,17.40
2022-09-11T19:14:51.409Z,17.40
2022-09-11T19:17:22.918Z,17.30
2022-09-11T19:19:57.541Z,17.30
2022-09-11T19:22:29.223Z,17.30
2022-09-11T19:25:01.428Z,17.30
2022-09-11T19:27:32.907Z,17.30
2022-09-11T19:30:06.593Z,17.20
2022-09-11T19:33:00.388Z,17.20
2022-09-11T19:35:35.544Z,17.30
2022-09-11T19:38:06.711Z,17.30
2022-09-11T19:40:38.249Z,17.30
2022-09-11T19:43:12.462Z,17.20
2022-09-11T19:45:43.732Z,17.20
2022-09-11T19:48:15.977Z,17.20
2022-09-11T19:50:50.204Z,17.20
2022-09-11T19:53:21.370Z,17.30
2022-09-11T19:55:55.779Z,17.20
2022-09-11T19:58:26.994Z,17.30
2022-09-11T20:00:58.222Z,17.20
2022-09-11T20:03:29.370Z,17.20
2022-09-11T20:06:03.158Z,17.20
2022-09-11T20:08:36.843Z,17.20
2022-09-11T20:11:09.537Z,17.20
2022-09-11T20:13:40.734Z,17.20
2022-09-11T20:16:12.963Z,17.20
2022-09-11T20:18:44.406Z,17.20
2022-09-11T20:21:19.026Z,17.10
2022-09-11T20:23:49.904Z,17.10
2022-09-11T20:26:21.745Z,17.10
2022-09-11T20:28:55.804Z,17.10
2022-09-11T20:31:28.627Z,17.00
2022-09-11T20:34:00.624Z,17.00
2022-09-11T20:36:34.733Z,17.00
2022-09-11T20:39:06.627Z,17.00
2022-09-11T20:41:38.013Z,17.00
2022-09-11T20:44:08.798Z,16.90
2022-09-11T20:46:40.683Z,16.90
2022-09-11T20:49:11.775Z,17.00
2022-09-11T20:51:45.450Z,16.90
2022-09-11T20:54:16.555Z,16.90
2022-09-11T20:56:47.651Z,16.90
2022-09-11T20:59:18.990Z,16.90
2022-09-11T21:01:50.662Z,16.90
2022-09-11T21:04:23.694Z,16.90
2022-09-11T21:06:57.373Z,16.80
2022-09-11T21:09:28.577Z,16.80
2022-09-11T21:11:59.735Z,16.80
2022-09-11T21:14:30.523Z,16.90
2022-09-11T21:17:02.383Z,16.80
2022-09-11T21:19:33.096Z,16.80
2022-09-11T21:22:06.766Z,16.70
2022-09-11T21:24:37.992Z,16.70
2022-09-11T21:27:09.021Z,16.80
2022-09-11T21:29:39.977Z,16.70
2022-09-11T21:32:11.089Z,16.70
2022-09-11T21:34:41.874Z,16.70
2022-09-11T21:37:15.589Z,16.70
2022-09-11T21:39:46.667Z,16.70
2022-09-11T21:42:17.813Z,16.70
2022-09-11T21:44:48.624Z,16.60
2022-09-11T21:47:19.767Z,16.60
2022-09-11T21:49:50.600Z,16.60
2022-09-11T21:52:24.216Z,16.60
2022-09-11T21:54:54.994Z,16.60
2022-09-11T21:57:28.894Z,16.60
2022-09-11T21:59:59.716Z,16.60
2022-09-11T22:02:30.677Z,16.60
2022-09-11T22:05:01.418Z,16.60
2022-09-11T22:07:35.151Z,16.60
2022-09-11T22:10:06.553Z,16.50
2022-09-11T22:12:38.064Z,16.50
2022-09-11T22:15:09.944Z,16.50
2022-09-11T22:17:41.044Z,16.50
2022-09-11T22:20:11.892Z,16.50
2022-09-11T22:22:46.377Z,16.40
2022-09-11T22:25:17.108Z,16.40
2022-09-11T22:27:48.872Z,16.40
2022-09-11T22:30:19.714Z,16.50
2022-09-11T22:32:50.698Z,16.40
2022-09-11T22:35:21.410Z,16.30
2022-09-11T22:37:55.045Z,16.40
2022-09-11T22:40:25.962Z,16.40
2022-09-11T22:42:57.065Z,16.40
2022-09-11T22:45:27.887Z,16.40
2022-09-11T22:47:59.033Z,16.30
2022-09-11T22:50:31.220Z,16.40
2022-09-11T22:53:04.827Z,16.40
2022-09-11T22:55:35.595Z,16.30
2022-09-11T22:58:06.605Z,16.30
2022-09-11T23:00:37.561Z,16.40
2022-09-11T23:03:08.648Z,16.40
2022-09-11T23:05:51.714Z,16.40
2022-09-11T23:08:29.285Z,16.30
2022-09-11T23:11:02.145Z,16.30
2022-09-11T23:13:34.061Z,16.30
2022-09-11T23:16:13.459Z,16.30
2022-09-11T23:18:45.118Z,16.30
2022-09-11T23:21:16.467Z,16.30
2022-09-11T23:23:54.492Z,16.30
2022-09-11T23:26:26.306Z,16.20
2022-09-11T23:28:57.359Z,16.20
2022-09-11T23:31:28.988Z,16.20
2022-09-11T23:34:01.194Z,16.20
2022-09-11T23:36:32.472Z,16.20
2022-09-11T23:39:06.408Z,16.10
2022-09-11T23:41:37.403Z,16.20
2022-09-11T23:44:08.716Z,16.10
2022-09-11T23:46:39.671Z,16.20
2022-09-11T23:49:10.733Z,16.20
2022-09-11T23:51:41.825Z,16.20
2022-09-11T23:54:15.501Z,16.20
2022-09-11T23:56:46.320Z,16.20
2022-09-11T23:59:17.352Z,16.10
